Danbury, New Hampshire
Current Conditions -  °F | °C
As of 9:35 PM on Thursday 20 Nov 2014 (Local Time) from K1P1 Reporting Station
Clear Clear  
Wind Chill: 27°   Ceiling: Unl
Heat Index: 27°   Visibility: 10mi
Dew Point: 14°   Wind: 0mph
Humidity: 57%   Direction: NA
Pressure: 29.85"   Gusts: NA
Location:  43.53°N, 71.86°W
Report Text: K1P1 210235Z AUTO 00000KT 10SM CLR M03/M10 A2985 RMK AO2 T10271101
Loading
Personal Weather Stations






























Interactive Weather Map New forecast layout! Learn more

10-Day Weather Forecast

Advertisements
Track Severe Weather on mobile